createdAt,value
2023-01-03T00:01:29.013Z,7.73
2023-01-03T00:03:57.194Z,7.77
2023-01-03T00:06:26.833Z,7.76
2023-01-03T00:08:54.821Z,7.73
2023-01-03T00:11:44.338Z,7.73
2023-01-03T00:14:13.830Z,7.77
2023-01-03T00:16:41.165Z,7.76
2023-01-03T00:19:09.742Z,7.77
2023-01-03T00:21:36.851Z,7.75
2023-01-03T00:24:04.544Z,7.81
2023-01-03T00:26:32.325Z,7.80
2023-01-03T00:28:59.508Z,7.72
2023-01-03T00:31:27.240Z,7.65
2023-01-03T00:33:54.479Z,7.64
2023-01-03T00:36:21.481Z,7.65
2023-01-03T00:38:48.514Z,7.66
2023-01-03T00:41:17.324Z,7.69
2023-01-03T00:43:47.098Z,7.73
2023-01-03T00:46:15.872Z,7.72
2023-01-03T00:48:43.246Z,7.69
2023-01-03T00:51:17.286Z,7.70
2023-01-03T00:53:45.891Z,7.65
2023-01-03T00:56:18.282Z,7.66
2023-01-03T00:58:45.679Z,7.65
2023-01-03T01:01:22.363Z,7.64
2023-01-03T01:03:56.271Z,7.61
2023-01-03T01:06:26.163Z,7.57
2023-01-03T01:08:55.571Z,7.51
2023-01-03T01:11:24.244Z,7.50
2023-01-03T01:13:51.824Z,7.41
2023-01-03T01:16:21.563Z,7.40
2023-01-03T01:18:50.140Z,7.35
2023-01-03T01:21:31.446Z,7.33
2023-01-03T01:24:00.155Z,7.29
2023-01-03T01:26:27.226Z,7.26
2023-01-03T01:28:55.349Z,7.25
2023-01-03T01:31:24.969Z,7.28
2023-01-03T01:33:53.479Z,7.21
2023-01-03T01:36:28.976Z,7.22
2023-01-03T01:38:58.664Z,7.21
2023-01-03T01:41:45.276Z,7.26
2023-01-03T01:44:49.852Z,7.21
2023-01-03T01:47:24.948Z,7.18
2023-01-03T01:49:56.431Z,7.17
2023-01-03T01:52:23.851Z,7.15
2023-01-03T01:54:52.125Z,7.06
2023-01-03T01:57:22.242Z,7.09
2023-01-03T01:59:49.890Z,7.09
2023-01-03T02:02:23.741Z,7.10
2023-01-03T02:04:53.571Z,7.09
2023-01-03T02:07:22.302Z,6.97
2023-01-03T02:09:50.601Z,6.94
2023-01-03T02:13:03.458Z,6.89
2023-01-03T02:15:41.949Z,6.89
2023-01-03T02:18:38.376Z,6.96
2023-01-03T02:21:19.632Z,6.91
2023-01-03T02:24:08.450Z,6.87
2023-01-03T02:26:41.299Z,6.89
2023-01-03T02:29:46.017Z,6.84
2023-01-03T02:32:16.911Z,6.73
2023-01-03T02:35:05.271Z,6.69
2023-01-03T02:37:37.727Z,6.70
2023-01-03T02:40:13.261Z,6.59
2023-01-03T02:43:02.416Z,6.63
2023-01-03T02:46:06.975Z,6.68
2023-01-03T02:49:04.561Z,6.55
2023-01-03T02:51:35.769Z,6.40
2023-01-03T02:54:04.063Z,6.41
2023-01-03T02:56:36.104Z,6.51
2023-01-03T02:59:07.726Z,6.50
2023-01-03T03:01:36.006Z,6.53
2023-01-03T03:04:03.741Z,6.52
2023-01-03T03:06:48.333Z,6.58
2023-01-03T03:09:15.279Z,6.50
2023-01-03T03:12:01.605Z,6.54
2023-01-03T03:14:42.555Z,6.49
2023-01-03T03:17:14.113Z,6.45
2023-01-03T03:20:04.559Z,6.51
2023-01-03T03:23:06.056Z,6.50
2023-01-03T03:25:46.183Z,6.48
2023-01-03T03:28:34.605Z,6.49
2023-01-03T03:31:23.151Z,6.53
2023-01-03T03:33:59.108Z,6.48
2023-01-03T03:36:49.142Z,6.42
2023-01-03T03:39:35.535Z,6.39
2023-01-03T03:42:45.516Z,6.39
2023-01-03T03:45:40.239Z,6.49
2023-01-03T03:48:30.288Z,6.50
2023-01-03T03:51:08.724Z,6.51
2023-01-03T03:53:37.521Z,6.47
2023-01-03T03:56:10.232Z,6.50
2023-01-03T03:58:40.579Z,6.54
2023-01-03T04:01:11.878Z,6.55
2023-01-03T04:03:40.695Z,6.55
2023-01-03T04:06:15.499Z,6.58
2023-01-03T04:08:42.617Z,6.55
2023-01-03T04:11:09.576Z,6.47
2023-01-03T04:13:38.553Z,6.43
2023-01-03T04:16:07.180Z,6.45
2023-01-03T04:18:34.693Z,6.48
2023-01-03T04:21:01.602Z,6.48
2023-01-03T04:23:28.782Z,6.50
2023-01-03T04:25:55.700Z,6.51
2023-01-03T04:28:22.714Z,6.45
2023-01-03T04:30:49.854Z,6.40
2023-01-03T04:33:16.953Z,6.37
2023-01-03T04:35:44.000Z,6.40
2023-01-03T04:38:10.915Z,6.40
2023-01-03T04:40:41.111Z,6.43
2023-01-03T04:43:27.634Z,6.41
2023-01-03T04:45:55.046Z,6.33
2023-01-03T04:48:22.323Z,6.26
2023-01-03T04:50:56.375Z,6.23
2023-01-03T04:53:24.548Z,6.25
2023-01-03T04:55:53.002Z,6.26
2023-01-03T04:58:20.514Z,6.25
2023-01-03T05:00:47.771Z,6.28
2023-01-03T05:03:16.022Z,6.25
2023-01-03T05:05:42.968Z,6.16
2023-01-03T05:08:11.686Z,6.12
2023-01-03T05:10:39.756Z,6.05
2023-01-03T05:13:07.747Z,6.01
2023-01-03T05:15:39.052Z,5.99
2023-01-03T05:18:06.615Z,6.01
2023-01-03T05:20:54.984Z,5.98
2023-01-03T05:23:40.793Z,5.92
2023-01-03T05:26:13.905Z,5.83
2023-01-03T05:28:42.556Z,5.79
2023-01-03T05:31:09.601Z,5.79
2023-01-03T05:33:41.039Z,5.78
2023-01-03T05:36:09.747Z,5.78
2023-01-03T05:38:37.800Z,5.67
2023-01-03T05:41:05.412Z,5.54
2023-01-03T05:43:32.561Z,5.48
2023-01-03T05:45:59.713Z,5.48
2023-01-03T05:48:27.147Z,5.52
2023-01-03T05:50:57.576Z,5.46
2023-01-03T05:53:25.240Z,5.45
2023-01-03T05:55:52.327Z,5.53
2023-01-03T05:58:19.439Z,5.53
2023-01-03T06:00:46.502Z,5.46
2023-01-03T06:03:13.809Z,5.44
2023-01-03T06:05:47.833Z,5.50
2023-01-03T06:08:16.932Z,5.46
2023-01-03T06:10:43.942Z,5.49
2023-01-03T06:13:10.987Z,5.44
2023-01-03T06:15:37.955Z,5.47
2023-01-03T06:18:04.966Z,5.43
2023-01-03T06:20:32.049Z,5.39
2023-01-03T06:22:59.153Z,5.41
2023-01-03T06:25:26.144Z,5.48
2023-01-03T06:27:53.233Z,5.46
2023-01-03T06:30:21.122Z,5.40
2023-01-03T06:32:48.274Z,5.28
2023-01-03T06:35:15.347Z,5.30
2023-01-03T06:37:42.517Z,5.39
2023-01-03T06:40:10.081Z,5.45
2023-01-03T06:42:40.110Z,5.46
2023-01-03T06:45:26.258Z,5.45
2023-01-03T06:48:12.090Z,5.43
2023-01-03T06:50:59.317Z,5.48
2023-01-03T06:53:28.485Z,5.47
2023-01-03T06:55:57.344Z,5.46
2023-01-03T06:58:24.890Z,5.44
2023-01-03T07:00:52.577Z,5.38
2023-01-03T07:03:19.574Z,5.39
2023-01-03T07:05:46.547Z,5.33
2023-01-03T07:08:13.514Z,5.38
2023-01-03T07:10:41.315Z,5.39
2023-01-03T07:13:27.389Z,5.41
2023-01-03T07:15:54.492Z,5.51
2023-01-03T07:18:21.758Z,5.51
2023-01-03T07:20:48.777Z,5.56
2023-01-03T07:23:15.723Z,5.64
2023-01-03T07:25:42.839Z,5.58
2023-01-03T07:28:14.097Z,5.47
2023-01-03T07:30:43.198Z,5.40
2023-01-03T07:33:11.379Z,5.33
2023-01-03T07:35:38.847Z,5.22
2023-01-03T07:38:06.705Z,5.22
2023-01-03T07:40:33.671Z,5.22
2023-01-03T07:43:19.076Z,5.18
2023-01-03T07:45:46.813Z,5.17
2023-01-03T07:48:14.237Z,5.22
2023-01-03T07:50:41.903Z,5.15
2023-01-03T07:53:09.576Z,5.19
2023-01-03T07:55:37.594Z,5.16
2023-01-03T07:58:04.871Z,5.22
2023-01-03T08:00:31.984Z,5.38
2023-01-03T08:02:59.076Z,5.48
2023-01-03T08:05:26.423Z,5.53
2023-01-03T08:07:53.716Z,5.61
2023-01-03T08:10:39.754Z,5.60
2023-01-03T08:13:25.559Z,5.67
2023-01-03T08:15:56.956Z,5.71
2023-01-03T08:18:28.081Z,5.72
2023-01-03T08:20:55.792Z,5.82
2023-01-03T08:23:26.679Z,5.77
2023-01-03T08:26:02.545Z,5.84
2023-01-03T08:28:29.942Z,5.89
2023-01-03T08:30:57.592Z,5.91
2023-01-03T08:33:27.397Z,5.90
2023-01-03T08:36:02.578Z,5.91
2023-01-03T08:38:33.642Z,5.92
2023-01-03T08:41:02.246Z,5.96
2023-01-03T08:43:32.258Z,5.99
2023-01-03T08:45:59.234Z,6.04
2023-01-03T08:48:26.300Z,6.10
2023-01-03T08:50:53.209Z,6.10
2023-01-03T08:53:20.413Z,6.09
2023-01-03T08:55:47.516Z,6.11
2023-01-03T08:58:14.427Z,6.10
2023-01-03T09:00:41.345Z,6.13
2023-01-03T09:03:08.406Z,6.08
2023-01-03T09:05:35.570Z,6.10
2023-01-03T09:08:02.490Z,6.05
2023-01-03T09:10:29.506Z,6.04
2023-01-03T09:12:56.494Z,6.04
2023-01-03T09:15:23.493Z,6.10
2023-01-03T09:17:50.786Z,6.04
2023-01-03T09:20:18.809Z,6.08
2023-01-03T09:22:48.062Z,6.07
2023-01-03T09:25:15.715Z,6.10
2023-01-03T09:27:47.106Z,6.10
2023-01-03T09:30:15.080Z,6.14
2023-01-03T09:32:42.271Z,6.14
2023-01-03T09:35:09.733Z,6.16
2023-01-03T09:37:36.889Z,6.17
2023-01-03T09:40:04.716Z,6.16
2023-01-03T09:42:50.084Z,6.18
2023-01-03T09:45:29.399Z,6.23
2023-01-03T09:47:56.653Z,6.14
2023-01-03T09:50:50.282Z,6.12
2023-01-03T09:53:53.544Z,6.18
2023-01-03T09:56:38.744Z,6.15
2023-01-03T09:59:35.123Z,6.13
2023-01-03T10:02:47.123Z,6.10
2023-01-03T10:05:21.482Z,6.03
2023-01-03T10:07:57.825Z,6.05
2023-01-03T10:10:27.510Z,5.96
2023-01-03T10:13:09.122Z,5.87
2023-01-03T10:16:13.655Z,5.73
2023-01-03T10:18:59.437Z,5.62
2023-01-03T10:21:53.618Z,5.52
2023-01-03T10:24:31.669Z,5.52
2023-01-03T10:27:19.500Z,5.52
2023-01-03T10:29:48.597Z,5.59
2023-01-03T10:32:37.237Z,5.60
2023-01-03T10:35:24.209Z,5.69
2023-01-03T10:37:53.895Z,5.77
2023-01-03T10:40:21.417Z,5.80
2023-01-03T10:42:50.440Z,5.85
2023-01-03T10:45:21.191Z,5.89
2023-01-03T10:48:01.264Z,5.89
2023-01-03T10:50:28.916Z,5.92
2023-01-03T10:53:04.682Z,5.95
2023-01-03T10:55:34.276Z,5.87
2023-01-03T10:58:17.257Z,5.87
2023-01-03T11:00:44.343Z,5.87
2023-01-03T11:03:16.978Z,5.82
2023-01-03T11:05:50.068Z,5.78
2023-01-03T11:08:45.356Z,5.84
2023-01-03T11:11:41.266Z,5.86
2023-01-03T11:14:27.429Z,5.89
2023-01-03T11:17:02.147Z,5.94
2023-01-03T11:19:31.626Z,5.90
2023-01-03T11:22:05.047Z,5.93
2023-01-03T11:24:32.052Z,5.93
2023-01-03T11:27:08.722Z,5.94
2023-01-03T11:29:45.263Z,5.96
2023-01-03T11:32:16.185Z,5.94
2023-01-03T11:35:23.770Z,5.89
2023-01-03T11:37:56.717Z,5.90
2023-01-03T11:40:45.467Z,5.84
2023-01-03T11:43:37.157Z,5.78
2023-01-03T11:46:07.271Z,5.70
2023-01-03T11:49:11.777Z,5.72
2023-01-03T11:52:00.364Z,5.71
2023-01-03T11:54:43.789Z,5.73
2023-01-03T11:57:28.731Z,5.83
2023-01-03T12:00:00.840Z,5.97
2023-01-03T12:02:45.879Z,6.01
2023-01-03T12:05:40.461Z,5.98
2023-01-03T12:08:30.578Z,5.95
2023-01-03T12:11:11.121Z,5.95
2023-01-03T12:13:45.599Z,5.90
2023-01-03T12:16:23.728Z,5.88
2023-01-03T12:18:58.167Z,5.88
2023-01-03T12:21:37.786Z,5.90
2023-01-03T12:24:18.407Z,5.79
2023-01-03T12:26:51.506Z,5.69
2023-01-03T12:29:23.668Z,5.68
2023-01-03T12:31:59.992Z,5.68
2023-01-03T12:34:38.067Z,5.64
2023-01-03T12:37:17.771Z,5.59
2023-01-03T12:40:17.419Z,5.62
2023-01-03T12:43:15.276Z,5.62
2023-01-03T12:45:47.728Z,5.64
2023-01-03T12:48:26.608Z,5.59
2023-01-03T12:50:54.768Z,5.60
2023-01-03T12:53:53.435Z,5.62
2023-01-03T12:56:39.893Z,5.54
2023-01-03T12:59:26.849Z,5.51
2023-01-03T13:02:01.032Z,5.49
2023-01-03T13:04:28.224Z,5.46
2023-01-03T13:07:11.670Z,5.39
2023-01-03T13:09:42.594Z,5.38
2023-01-03T13:12:17.826Z,5.31
2023-01-03T13:15:03.722Z,5.30
2023-01-03T13:17:32.362Z,5.28
2023-01-03T13:20:20.104Z,5.26
2023-01-03T13:22:57.895Z,5.27
2023-01-03T13:25:32.260Z,5.21
2023-01-03T13:28:05.863Z,5.24
2023-01-03T13:30:36.227Z,5.24
2023-01-03T13:33:21.876Z,5.23
2023-01-03T13:35:48.788Z,5.19
2023-01-03T13:38:37.122Z,5.16
2023-01-03T13:41:31.318Z,5.17
2023-01-03T13:44:19.658Z,5.21
2023-01-03T13:46:47.630Z,5.19
2023-01-03T13:49:23.351Z,5.19
2023-01-03T13:51:57.792Z,5.17
2023-01-03T13:54:54.807Z,5.16
2023-01-03T13:57:29.994Z,5.14
2023-01-03T13:59:57.636Z,5.11
2023-01-03T14:03:01.938Z,5.07
2023-01-03T14:05:54.196Z,5.04
2023-01-03T14:08:46.451Z,5.00
2023-01-03T14:11:41.219Z,4.94
2023-01-03T14:14:13.191Z,4.89
2023-01-03T14:16:53.820Z,4.92
2023-01-03T14:19:24.657Z,4.92
2023-01-03T14:22:14.244Z,4.92
2023-01-03T14:24:57.289Z,4.92
2023-01-03T14:27:28.650Z,4.93
2023-01-03T14:29:56.066Z,4.93
2023-01-03T14:32:30.413Z,4.92
2023-01-03T14:35:01.229Z,4.90
2023-01-03T14:37:28.424Z,4.90
2023-01-03T14:40:00.992Z,4.90
2023-01-03T14:42:28.552Z,4.99
2023-01-03T14:45:06.928Z,4.98
2023-01-03T14:47:42.089Z,4.96
2023-01-03T14:50:21.137Z,4.97
2023-01-03T14:52:52.942Z,4.96
2023-01-03T14:55:21.384Z,5.03
2023-01-03T14:57:49.900Z,5.01
2023-01-03T15:00:37.347Z,5.01
2023-01-03T15:03:05.199Z,4.98
2023-01-03T15:05:34.679Z,4.94
2023-01-03T15:08:23.026Z,4.92
2023-01-03T15:11:06.219Z,4.89
2023-01-03T15:13:37.998Z,4.83
2023-01-03T15:16:07.139Z,4.82
2023-01-03T15:18:37.440Z,4.85
2023-01-03T15:21:05.383Z,4.89
2023-01-03T15:23:42.772Z,4.90
2023-01-03T15:26:30.267Z,4.93
2023-01-03T15:29:16.197Z,4.96
2023-01-03T15:31:55.873Z,4.97
2023-01-03T15:34:28.937Z,4.92
2023-01-03T15:37:12.511Z,4.91
2023-01-03T15:39:48.099Z,4.95
2023-01-03T15:42:47.874Z,4.89
2023-01-03T15:45:25.116Z,4.99
2023-01-03T15:47:55.864Z,4.93
2023-01-03T15:50:26.120Z,4.88
2023-01-03T15:52:53.075Z,4.87
2023-01-03T15:55:20.080Z,4.88
2023-01-03T15:57:51.493Z,4.86
2023-01-03T16:00:21.575Z,4.85
2023-01-03T16:02:49.038Z,4.80
2023-01-03T16:05:22.117Z,4.83
2023-01-03T16:07:51.045Z,4.82
2023-01-03T16:10:18.155Z,4.82
2023-01-03T16:12:45.678Z,4.77
2023-01-03T16:15:21.780Z,4.74
2023-01-03T16:17:50.190Z,4.69
2023-01-03T16:20:18.181Z,4.70
2023-01-03T16:22:57.692Z,4.60
2023-01-03T16:25:28.018Z,4.56
2023-01-03T16:27:55.217Z,4.47
2023-01-03T16:30:24.498Z,4.37
2023-01-03T16:32:52.154Z,4.36
2023-01-03T16:35:20.023Z,4.29
2023-01-03T16:37:47.142Z,4.29
2023-01-03T16:40:19.740Z,4.17
2023-01-03T16:42:47.003Z,4.19
2023-01-03T16:45:14.650Z,4.18
2023-01-03T16:47:43.556Z,4.17
2023-01-03T16:50:16.818Z,4.13
2023-01-03T16:52:46.958Z,4.13
2023-01-03T16:55:33.114Z,4.16
2023-01-03T16:58:00.798Z,4.17
2023-01-03T17:00:29.998Z,4.13
2023-01-03T17:03:01.465Z,4.14
2023-01-03T17:05:33.317Z,4.12
2023-01-03T17:08:06.052Z,4.15
2023-01-03T17:10:36.179Z,4.11
2023-01-03T17:13:08.572Z,4.08
2023-01-03T17:15:40.709Z,4.07
2023-01-03T17:18:16.856Z,4.06
2023-01-03T17:20:44.227Z,4.07
2023-01-03T17:23:11.265Z,4.07
2023-01-03T17:25:39.644Z,4.09
2023-01-03T17:28:06.559Z,4.11
2023-01-03T17:30:33.806Z,4.12
2023-01-03T17:33:00.888Z,4.16
2023-01-03T17:35:27.973Z,4.15
2023-01-03T17:38:24.760Z,4.14
2023-01-03T17:40:47.678Z,4.08
2023-01-03T17:43:20.985Z,4.06
2023-01-03T17:46:07.889Z,4.07
2023-01-03T17:48:53.283Z,4.12
2023-01-03T17:51:21.328Z,4.14
2023-01-03T17:53:49.850Z,4.15
2023-01-03T17:56:18.935Z,4.19
2023-01-03T17:58:55.595Z,4.17
2023-01-03T18:01:23.413Z,4.18
2023-01-03T18:03:50.865Z,4.17
2023-01-03T18:06:22.582Z,4.18
2023-01-03T18:08:50.881Z,4.20
2023-01-03T18:11:20.067Z,4.20
2023-01-03T18:13:47.656Z,4.18
2023-01-03T18:16:22.703Z,4.18
2023-01-03T18:18:50.186Z,4.15
2023-01-03T18:21:23.135Z,4.14
2023-01-03T18:24:05.578Z,4.25
2023-01-03T18:26:37.820Z,4.25
2023-01-03T18:29:06.366Z,4.24
2023-01-03T18:31:33.717Z,4.24
2023-01-03T18:34:04.752Z,4.26
2023-01-03T18:36:38.251Z,4.29
2023-01-03T18:39:14.396Z,4.29
2023-01-03T18:41:42.363Z,4.30
2023-01-03T18:44:19.919Z,4.28
2023-01-03T18:46:47.943Z,4.32
2023-01-03T18:49:17.036Z,4.34
2023-01-03T18:51:45.966Z,4.43
2023-01-03T18:54:17.156Z,4.46
2023-01-03T18:56:45.120Z,4.54
2023-01-03T18:59:27.057Z,4.56
2023-01-03T19:01:54.970Z,4.59
2023-01-03T19:04:22.275Z,4.37
2023-01-03T19:06:52.233Z,4.05
2023-01-03T19:09:25.287Z,3.80
2023-01-03T19:11:53.953Z,3.71
2023-01-03T19:16:48.597Z,3.61
2023-01-03T19:19:15.716Z,3.60
2023-01-03T19:21:46.665Z,3.62
2023-01-03T19:24:38.509Z,3.67
2023-01-03T19:27:12.275Z,3.68
2023-01-03T19:29:39.647Z,3.67
2023-01-03T19:32:31.521Z,3.67
2023-01-03T19:34:58.600Z,3.72
2023-01-03T19:37:25.611Z,3.75
2023-01-03T19:39:52.718Z,3.77
2023-01-03T19:42:39.568Z,3.79
2023-01-03T19:45:36.407Z,3.88
2023-01-03T19:48:12.569Z,3.90
2023-01-03T19:50:39.799Z,3.91
2023-01-03T19:53:07.167Z,3.94
2023-01-03T19:55:38.004Z,3.99
2023-01-03T19:58:18.041Z,4.03
2023-01-03T20:00:47.755Z,4.06
2023-01-03T20:03:35.593Z,4.11
2023-01-03T20:06:04.555Z,4.13
2023-01-03T20:08:32.466Z,4.17
2023-01-03T20:11:00.427Z,4.17
2023-01-03T20:13:28.691Z,4.21
2023-01-03T20:16:00.494Z,4.22
2023-01-03T20:18:36.033Z,4.23
2023-01-03T20:21:10.112Z,4.25
2023-01-03T20:23:40.678Z,4.28
2023-01-03T20:26:18.180Z,4.29
2023-01-03T20:28:46.479Z,4.37
2023-01-03T20:31:19.936Z,4.40
2023-01-03T20:33:48.720Z,4.42
2023-01-03T20:36:23.626Z,4.41
2023-01-03T20:38:53.869Z,4.42
2023-01-03T20:41:21.108Z,4.44
2023-01-03T20:43:50.454Z,4.45
2023-01-03T20:46:21.034Z,4.45
2023-01-03T20:48:56.154Z,4.43
2023-01-03T20:51:27.374Z,4.43
2023-01-03T20:53:55.480Z,4.38
2023-01-03T20:56:23.371Z,4.41
2023-01-03T20:58:50.575Z,4.33
2023-01-03T21:01:17.956Z,4.28
2023-01-03T21:03:45.271Z,4.20
2023-01-03T21:06:19.861Z,4.16
2023-01-03T21:08:59.555Z,4.14
2023-01-03T21:11:27.846Z,4.17
2023-01-03T21:13:56.240Z,4.15
2023-01-03T21:16:34.037Z,4.16
2023-01-03T21:19:06.182Z,4.19
2023-01-03T21:21:34.047Z,4.20
2023-01-03T21:24:02.278Z,4.22
2023-01-03T21:26:31.224Z,4.22
2023-01-03T21:28:59.285Z,4.21
2023-01-03T21:31:27.001Z,4.22
2023-01-03T21:33:54.193Z,4.25
2023-01-03T21:36:32.345Z,4.25
2023-01-03T21:39:00.497Z,4.25
2023-01-03T21:41:34.989Z,4.23
2023-01-03T21:44:03.721Z,4.23
2023-01-03T21:46:30.730Z,4.22
2023-01-03T21:48:58.232Z,4.21
2023-01-03T21:51:41.131Z,4.20
2023-01-03T21:54:09.407Z,4.20
2023-01-03T21:56:45.860Z,4.18
2023-01-03T21:59:14.934Z,4.16
2023-01-03T22:02:04.020Z,4.15
2023-01-03T22:04:31.956Z,4.15
2023-01-03T22:07:01.400Z,4.12
2023-01-03T22:09:48.144Z,4.14
2023-01-03T22:12:16.228Z,4.13
2023-01-03T22:14:47.281Z,4.09
2023-01-03T22:17:14.884Z,4.08
2023-01-03T22:19:42.166Z,4.06
2023-01-03T22:22:09.186Z,4.10
2023-01-03T22:24:36.297Z,4.09
2023-01-03T22:27:03.423Z,4.05
2023-01-03T22:29:30.368Z,4.05
2023-01-03T22:31:57.386Z,4.05
2023-01-03T22:34:24.431Z,4.08
2023-01-03T22:36:51.439Z,4.08
2023-01-03T22:39:18.308Z,4.03
2023-01-03T22:41:45.737Z,4.01
2023-01-03T22:44:12.731Z,4.00
2023-01-03T22:46:39.797Z,3.96
2023-01-03T22:49:06.828Z,3.93
2023-01-03T22:51:33.788Z,3.91
2023-01-03T22:54:01.233Z,3.89
2023-01-03T22:56:28.092Z,3.86
2023-01-03T22:58:55.164Z,3.88
2023-01-03T23:01:28.277Z,3.87
2023-01-03T23:03:57.064Z,3.88
2023-01-03T23:06:24.506Z,3.89
2023-01-03T23:08:51.484Z,3.86
2023-01-03T23:11:39.315Z,3.77
2023-01-03T23:14:09.022Z,3.65
2023-01-03T23:16:36.478Z,3.55
2023-01-03T23:19:06.417Z,3.45
2023-01-03T23:21:34.404Z,3.33
2023-01-03T23:24:01.698Z,3.28
2023-01-03T23:26:29.582Z,3.24
2023-01-03T23:28:57.943Z,3.25
